Aeroporto :
LOGIN :

Iscrizione | Disclaimer

   EN    FR    IT 

 










Sommario :    VFR   VFR Marginale   IFR   IFR Intensivo   IFR Molto Intensivo
Visibilità : 
Base nubi : 
>= 8 km
>= 3000ft
5 / 8 km
1000 / 3000 ft
1500m / 5 km
500 / 1000 ft
800 / 1500m
200 / 500 ft
< 800m
< 200 ft
Simboli :   Temporali  Nebbia  Neve Forte  Precipitazioni Forti  Vento > 20 kt
SIGMETs :   Varie  Temporali  Ghiacco  Turbolenza  Onda orograficha  Ceneri Vulcaniche






- Altitudine del aeroporto : 285 ft
- Codice IATA : OZP


LEMO - Sevilla Moron

ULTIMO METAR :
  • 230730Z 00000KT CAVOK 26/17 Q1018 NOSIG

METARs OBSOLETI :
  • 230700Z VRB02KT CAVOK 24/16 Q1017 NOSIG
  • 230630Z 00000KT CAVOK 22/17 Q1017 NOSIG
  • 230600Z 00000KT CAVOK 20/16 Q1017 NOSIG
  • 230530Z 34003KT 290V360 CAVOK 20/16 Q1017 NOSIG
  • 230500Z VRB02KT CAVOK 20/16 Q1017 NOSIG
  • 230430Z 06003KT CAVOK 22/17 Q1017 NOSIG
  • 230400Z 05003KT CAVOK 21/17 Q1016 NOSIG
  • 230330Z 08003KT CAVOK 22/17 Q1016 NOSIG
  • 230300Z 04002KT CAVOK 22/17 Q1016 NOSIG

TAF TAF LEMO
Valido dal 23 a 03 ore il 24 a 03 ore UTC


230200Z 2303/2403 VRB03KT CAVOK TX40/2315Z TN20/2305Z
TEMPO 2318/2321 26010KT



MetMap, La meteo Aeronautica in un colpo d'occhio ! - Copyright ORBIFLY Dicembre 2007 - Disclaimer

ORBIFLY MET'MAP TEAM :

Programmazione e sviluppo : Alexandra Zaïnal
Concezione : Baudouin d'Aumeries
Supporto tecnico e logistico : Manuel Goepfert
Aiuto : Marc-Olivier Méhu
Aiuto per la traduzione : Arnaldo La Scala




FONTI E CREDITI :

   NOAA